sensor_id;sensor_type;location;lat;lon;timestamp;temperature;humidity
19654;DHT22;9975;48.046;7.804;2023-03-14T01:57:05;9.10;99.90
19654;DHT22;9975;48.046;7.804;2023-03-14T01:59:31;10.80;99.90
19654;DHT22;9975;48.046;7.804;2023-03-14T02:01:59;10.80;99.90
19654;DHT22;9975;48.046;7.804;2023-03-14T02:04:29;10.80;99.90
19654;DHT22;9975;48.046;7.804;2023-03-14T02:08:09;10.70;99.90
19654;DHT22;9975;48.046;7.804;2023-03-14T02:10:04;10.80;99.90
19654;DHT22;9975;48.046;7.804;2023-03-14T02:12:31;10.80;99.90
19654;DHT22;9975;48.046;7.804;2023-03-14T02:14:57;10.70;99.90
19654;DHT22;9975;48.046;7.804;2023-03-14T02:17:24;10.80;99.90
19654;DHT22;9975;48.046;7.804;2023-03-14T02:20:17;10.80;99.90
19654;DHT22;9975;48.046;7.804;2023-03-14T02:22:48;10.80;99.90
19654;DHT22;9975;48.046;7.804;2023-03-14T02:27:58;10.80;99.90
19654;DHT22;9975;48.046;7.804;2023-03-14T02:30:27;10.80;99.90
19654;DHT22;9975;48.046;7.804;2023-03-14T02:32:57;10.80;99.90
19654;DHT22;9975;48.046;7.804;2023-03-14T02:35:34;10.90;99.90
19654;DHT22;9975;48.046;7.804;2023-03-14T02:38:10;10.90;99.90
19654;DHT22;9975;48.046;7.804;2023-03-14T02:40:38;10.90;99.90
19654;DHT22;9975;48.046;7.804;2023-03-14T02:43:04;10.90;99.90
19654;DHT22;9975;48.046;7.804;2023-03-14T02:45:37;10.90;99.90
19654;DHT22;9975;48.046;7.804;2023-03-14T02:48:20;10.90;99.90
19654;DHT22;9975;48.046;7.804;2023-03-14T02:50:48;10.90;99.90
19654;DHT22;9975;48.046;7.804;2023-03-14T02:53:25;10.90;99.90
19654;DHT22;9975;48.046;7.804;2023-03-14T02:55:51;11.00;99.90
19654;DHT22;9975;48.046;7.804;2023-03-14T02:58:18;10.90;99.90
19654;DHT22;9975;48.046;7.804;2023-03-14T03:00:44;11.00;99.90
19654;DHT22;9975;48.046;7.804;2023-03-14T03:03:10;11.00;99.90
19654;DHT22;9975;48.046;7.804;2023-03-14T03:05:35;10.90;99.90
19654;DHT22;9975;48.046;7.804;2023-03-14T03:08:01;10.90;99.90
19654;DHT22;9975;48.046;7.804;2023-03-14T03:10:28;10.90;99.90
19654;DHT22;9975;48.046;7.804;2023-03-14T03:12:53;10.90;99.90
19654;DHT22;9975;48.046;7.804;2023-03-14T03:15:19;10.90;99.90
19654;DHT22;9975;48.046;7.804;2023-03-14T03:17:45;10.90;99.90
19654;DHT22;9975;48.046;7.804;2023-03-14T03:20:11;10.90;99.90
19654;DHT22;9975;48.046;7.804;2023-03-14T03:25:51;10.90;99.90
19654;DHT22;9975;48.046;7.804;2023-03-14T03:28:18;10.90;99.90
19654;DHT22;9975;48.046;7.804;2023-03-14T03:30:43;10.80;99.90
19654;DHT22;9975;48.046;7.804;2023-03-14T03:33:10;10.80;99.90
19654;DHT22;9975;48.046;7.804;2023-03-14T03:38:10;10.80;99.90
19654;DHT22;9975;48.046;7.804;2023-03-14T03:40:37;10.80;99.90
19654;DHT22;9975;48.046;7.804;2023-03-14T03:43:02;10.70;99.90
19654;DHT22;9975;48.046;7.804;2023-03-14T03:45:29;10.80;99.90
19654;DHT22;9975;48.046;7.804;2023-03-14T03:47:55;10.80;99.90
19654;DHT22;9975;48.046;7.804;2023-03-14T03:50:21;10.70;99.90
19654;DHT22;9975;48.046;7.804;2023-03-14T03:52:46;10.70;99.90
19654;DHT22;9975;48.046;7.804;2023-03-14T03:55:12;10.80;99.90
19654;DHT22;9975;48.046;7.804;2023-03-14T03:57:37;10.80;99.90
19654;DHT22;9975;48.046;7.804;2023-03-14T04:00:04;10.80;99.90
19654;DHT22;9975;48.046;7.804;2023-03-14T04:02:31;10.70;99.90
19654;DHT22;9975;48.046;7.804;2023-03-14T04:04:56;10.70;99.90
19654;DHT22;9975;48.046;7.804;2023-03-14T04:07:22;10.70;99.90
19654;DHT22;9975;48.046;7.804;2023-03-14T04:09:48;10.60;99.90
19654;DHT22;9975;48.046;7.804;2023-03-14T04:12:13;10.60;99.90
19654;DHT22;9975;48.046;7.804;2023-03-14T04:14:39;10.70;99.90
19654;DHT22;9975;48.046;7.804;2023-03-14T04:17:06;10.60;99.90
19654;DHT22;9975;48.046;7.804;2023-03-14T04:19:32;10.60;99.90
19654;DHT22;9975;48.046;7.804;2023-03-14T04:21:58;10.60;99.90
19654;DHT22;9975;48.046;7.804;2023-03-14T04:24:23;10.70;99.90
19654;DHT22;9975;48.046;7.804;2023-03-14T04:26:49;10.70;99.90
19654;DHT22;9975;48.046;7.804;2023-03-14T04:29:14;10.70;99.90
19654;DHT22;9975;48.046;7.804;2023-03-14T04:31:40;10.80;99.90
19654;DHT22;9975;48.046;7.804;2023-03-14T04:34:05;10.70;99.90
19654;DHT22;9975;48.046;7.804;2023-03-14T04:36:31;10.70;99.90
19654;DHT22;9975;48.046;7.804;2023-03-14T04:38:57;10.80;99.90
19654;DHT22;9975;48.046;7.804;2023-03-14T04:41:22;10.70;99.90
19654;DHT22;9975;48.046;7.804;2023-03-14T04:43:48;10.70;99.90
19654;DHT22;9975;48.046;7.804;2023-03-14T04:46:13;10.80;99.90
19654;DHT22;9975;48.046;7.804;2023-03-14T04:48:39;10.70;99.90
19654;DHT22;9975;48.046;7.804;2023-03-14T04:51:05;10.70;99.90
19654;DHT22;9975;48.046;7.804;2023-03-14T04:53:31;10.70;99.90
19654;DHT22;9975;48.046;7.804;2023-03-14T04:55:56;10.60;99.90
19654;DHT22;9975;48.046;7.804;2023-03-14T04:58:23;10.60;99.90
19654;DHT22;9975;48.046;7.804;2023-03-14T05:00:49;10.60;99.90
19654;DHT22;9975;48.046;7.804;2023-03-14T05:03:16;10.60;99.90
19654;DHT22;9975;48.046;7.804;2023-03-14T05:05:42;10.50;99.90
19654;DHT22;9975;48.046;7.804;2023-03-14T05:08:08;10.60;99.90
19654;DHT22;9975;48.046;7.804;2023-03-14T05:10:33;10.60;99.90
19654;DHT22;9975;48.046;7.804;2023-03-14T05:12:59;10.60;99.90
19654;DHT22;9975;48.046;7.804;2023-03-14T05:15:24;10.60;99.90
19654;DHT22;9975;48.046;7.804;2023-03-14T05:17:50;10.50;99.90
19654;DHT22;9975;48.046;7.804;2023-03-14T05:20:16;10.50;99.90
19654;DHT22;9975;48.046;7.804;2023-03-14T05:22:42;10.60;99.90
19654;DHT22;9975;48.046;7.804;2023-03-14T05:25:08;10.60;99.90
19654;DHT22;9975;48.046;7.804;2023-03-14T05:27:34;10.60;99.90
19654;DHT22;9975;48.046;7.804;2023-03-14T05:30:01;10.50;99.90
19654;DHT22;9975;48.046;7.804;2023-03-14T05:32:26;10.50;99.90
19654;DHT22;9975;48.046;7.804;2023-03-14T05:34:52;10.50;99.90
19654;DHT22;9975;48.046;7.804;2023-03-14T05:37:18;10.50;99.90
19654;DHT22;9975;48.046;7.804;2023-03-14T05:39:43;10.50;99.60
19654;DHT22;9975;48.046;7.804;2023-03-14T05:42:09;10.50;99.70
19654;DHT22;9975;48.046;7.804;2023-03-14T05:44:35;10.70;99.70
19654;DHT22;9975;48.046;7.804;2023-03-14T05:47:00;10.60;99.40
19654;DHT22;9975;48.046;7.804;2023-03-14T05:49:26;10.60;99.30
19654;DHT22;9975;48.046;7.804;2023-03-14T05:51:51;10.60;99.00
19654;DHT22;9975;48.046;7.804;2023-03-14T05:54:29;10.60;98.80
19654;DHT22;9975;48.046;7.804;2023-03-14T05:56:55;10.60;98.50
19654;DHT22;9975;48.046;7.804;2023-03-14T05:59:22;10.60;98.70
19654;DHT22;9975;48.046;7.804;2023-03-14T06:01:47;10.60;98.40
19654;DHT22;9975;48.046;7.804;2023-03-14T06:04:13;10.70;98.20
19654;DHT22;9975;48.046;7.804;2023-03-14T06:06:39;10.60;98.30
19654;DHT22;9975;48.046;7.804;2023-03-14T06:09:04;10.70;98.10
19654;DHT22;9975;48.046;7.804;2023-03-14T06:11:30;10.70;97.80
19654;DHT22;9975;48.046;7.804;2023-03-14T06:13:55;10.70;97.80
19654;DHT22;9975;48.046;7.804;2023-03-14T06:16:21;10.70;97.50
19654;DHT22;9975;48.046;7.804;2023-03-14T06:18:47;10.80;97.40
19654;DHT22;9975;48.046;7.804;2023-03-14T06:21:14;10.80;97.40
19654;DHT22;9975;48.046;7.804;2023-03-14T06:23:40;10.80;97.30
19654;DHT22;9975;48.046;7.804;2023-03-14T06:26:06;10.80;97.40
19654;DHT22;9975;48.046;7.804;2023-03-14T06:28:31;10.80;97.30
19654;DHT22;9975;48.046;7.804;2023-03-14T06:30:59;10.80;97.20
19654;DHT22;9975;48.046;7.804;2023-03-14T06:33:24;10.80;97.30
19654;DHT22;9975;48.046;7.804;2023-03-14T06:35:50;10.90;97.10
19654;DHT22;9975;48.046;7.804;2023-03-14T06:38:15;10.90;97.10
19654;DHT22;9975;48.046;7.804;2023-03-14T06:40:41;10.80;97.20
19654;DHT22;9975;48.046;7.804;2023-03-14T06:43:07;10.90;97.00
19654;DHT22;9975;48.046;7.804;2023-03-14T06:45:32;10.90;97.20
19654;DHT22;9975;48.046;7.804;2023-03-14T06:47:58;10.80;97.00
19654;DHT22;9975;48.046;7.804;2023-03-14T06:50:23;11.10;97.20
19654;DHT22;9975;48.046;7.804;2023-03-14T06:52:50;11.00;96.80
19654;DHT22;9975;48.046;7.804;2023-03-14T06:55:16;11.10;96.80
19654;DHT22;9975;48.046;7.804;2023-03-14T06:57:43;11.00;97.00
19654;DHT22;9975;48.046;7.804;2023-03-14T07:00:10;11.10;97.00
19654;DHT22;9975;48.046;7.804;2023-03-14T07:02:35;11.10;96.70
19654;DHT22;9975;48.046;7.804;2023-03-14T07:05:01;11.10;96.60
19654;DHT22;9975;48.046;7.804;2023-03-14T07:07:27;11.10;96.70
19654;DHT22;9975;48.046;7.804;2023-03-14T07:09:53;11.10;96.70
19654;DHT22;9975;48.046;7.804;2023-03-14T07:12:19;11.10;96.40
19654;DHT22;9975;48.046;7.804;2023-03-14T07:14:44;11.10;96.50
19654;DHT22;9975;48.046;7.804;2023-03-14T07:17:10;11.10;96.50
19654;DHT22;9975;48.046;7.804;2023-03-14T07:19:36;11.20;97.00
19654;DHT22;9975;48.046;7.804;2023-03-14T07:22:04;11.20;96.50
19654;DHT22;9975;48.046;7.804;2023-03-14T07:24:29;11.20;96.20
19654;DHT22;9975;48.046;7.804;2023-03-14T07:26:55;11.30;95.80
19654;DHT22;9975;48.046;7.804;2023-03-14T07:29:20;11.30;95.00
19654;DHT22;9975;48.046;7.804;2023-03-14T07:31:46;11.40;95.30
19654;DHT22;9975;48.046;7.804;2023-03-14T07:34:12;11.50;94.60
19654;DHT22;9975;48.046;7.804;2023-03-14T07:36:37;11.50;94.50
19654;DHT22;9975;48.046;7.804;2023-03-14T07:39:03;11.50;94.60
19654;DHT22;9975;48.046;7.804;2023-03-14T07:41:29;11.50;94.60
19654;DHT22;9975;48.046;7.804;2023-03-14T07:43:55;11.50;93.90
19654;DHT22;9975;48.046;7.804;2023-03-14T07:46:21;11.50;94.30
19654;DHT22;9975;48.046;7.804;2023-03-14T07:48:46;11.50;94.80
19654;DHT22;9975;48.046;7.804;2023-03-14T07:51:12;11.50;94.70
19654;DHT22;9975;48.046;7.804;2023-03-14T07:53:38;11.50;94.80
19654;DHT22;9975;48.046;7.804;2023-03-14T07:56:05;11.40;95.10
19654;DHT22;9975;48.046;7.804;2023-03-14T07:58:30;11.50;95.20
19654;DHT22;9975;48.046;7.804;2023-03-14T08:00:58;11.50;95.60
19654;DHT22;9975;48.046;7.804;2023-03-14T08:03:24;11.50;95.70
19654;DHT22;9975;48.046;7.804;2023-03-14T08:05:50;11.50;95.70
19654;DHT22;9975;48.046;7.804;2023-03-14T08:08:16;11.40;95.60
19654;DHT22;9975;48.046;7.804;2023-03-14T08:10:42;11.50;96.00
19654;DHT22;9975;48.046;7.804;2023-03-14T08:13:09;11.50;96.10
19654;DHT22;9975;48.046;7.804;2023-03-14T08:15:35;11.50;96.20
19654;DHT22;9975;48.046;7.804;2023-03-14T08:18:02;11.50;96.60
19654;DHT22;9975;48.046;7.804;2023-03-14T08:20:29;11.40;96.80
19654;DHT22;9975;48.046;7.804;2023-03-14T08:22:59;11.40;97.00
19654;DHT22;9975;48.046;7.804;2023-03-14T08:25:26;11.40;96.70
19654;DHT22;9975;48.046;7.804;2023-03-14T08:27:52;11.30;97.00
19654;DHT22;9975;48.046;7.804;2023-03-14T08:30:19;11.20;97.30
19654;DHT22;9975;48.046;7.804;2023-03-14T08:32:45;11.30;97.70
19654;DHT22;9975;48.046;7.804;2023-03-14T08:35:11;11.40;97.80
19654;DHT22;9975;48.046;7.804;2023-03-14T08:37:36;11.30;98.00
19654;DHT22;9975;48.046;7.804;2023-03-14T08:40:04;11.30;98.10
19654;DHT22;9975;48.046;7.804;2023-03-14T08:42:33;11.30;98.30
19654;DHT22;9975;48.046;7.804;2023-03-14T08:44:59;11.30;98.30
19654;DHT22;9975;48.046;7.804;2023-03-14T08:47:25;11.40;98.40
19654;DHT22;9975;48.046;7.804;2023-03-14T08:49:50;11.50;98.60
19654;DHT22;9975;48.046;7.804;2023-03-14T08:52:16;11.40;98.80
19654;DHT22;9975;48.046;7.804;2023-03-14T08:54:43;11.40;98.60
19654;DHT22;9975;48.046;7.804;2023-03-14T08:57:09;11.40;98.50
19654;DHT22;9975;48.046;7.804;2023-03-14T08:59:35;11.50;98.80
19654;DHT22;9975;48.046;7.804;2023-03-14T09:02:01;11.50;98.80
19654;DHT22;9975;48.046;7.804;2023-03-14T09:04:29;11.50;98.70
19654;DHT22;9975;48.046;7.804;2023-03-14T09:06:55;11.50;98.90
19654;DHT22;9975;48.046;7.804;2023-03-14T09:09:20;11.50;98.40
19654;DHT22;9975;48.046;7.804;2023-03-14T09:11:47;11.50;98.60
19654;DHT22;9975;48.046;7.804;2023-03-14T09:14:12;11.50;98.50
19654;DHT22;9975;48.046;7.804;2023-03-14T09:16:39;11.60;98.80
19654;DHT22;9975;48.046;7.804;2023-03-14T09:19:04;11.60;98.30
19654;DHT22;9975;48.046;7.804;2023-03-14T09:21:31;9.50;97.50
19654;DHT22;9975;48.046;7.804;2023-03-14T09:23:56;11.60;97.60
19654;DHT22;9975;48.046;7.804;2023-03-14T09:26:22;11.60;97.20
19654;DHT22;9975;48.046;7.804;2023-03-14T09:28:47;11.60;96.90
19654;DHT22;9975;48.046;7.804;2023-03-14T09:31:14;11.70;97.10
19654;DHT22;9975;48.046;7.804;2023-03-14T09:33:40;11.70;96.80
19654;DHT22;9975;48.046;7.804;2023-03-14T09:36:06;11.70;96.70
19654;DHT22;9975;48.046;7.804;2023-03-14T09:38:33;11.80;96.60
19654;DHT22;9975;48.046;7.804;2023-03-14T09:41:00;11.70;96.50
19654;DHT22;9975;48.046;7.804;2023-03-14T09:43:31;11.70;96.50
19654;DHT22;9975;48.046;7.804;2023-03-14T09:46:01;11.70;96.30
19654;DHT22;9975;48.046;7.804;2023-03-14T09:48:30;11.70;96.50
19654;DHT22;9975;48.046;7.804;2023-03-14T09:50:58;11.70;96.50
19654;DHT22;9975;48.046;7.804;2023-03-14T09:53:46;11.60;96.70
19654;DHT22;9975;48.046;7.804;2023-03-14T09:56:27;11.60;97.10
19654;DHT22;9975;48.046;7.804;2023-03-14T09:58:57;11.40;97.10
19654;DHT22;9975;48.046;7.804;2023-03-14T10:01:27;11.50;97.40
19654;DHT22;9975;48.046;7.804;2023-03-14T10:04:01;11.40;98.00
19654;DHT22;9975;48.046;7.804;2023-03-14T10:06:30;11.20;99.20
19654;DHT22;9975;48.046;7.804;2023-03-14T10:08:56;11.20;99.70
19654;DHT22;9975;48.046;7.804;2023-03-14T10:11:23;11.20;99.90
19654;DHT22;9975;48.046;7.804;2023-03-14T10:16:37;11.20;99.90
19654;DHT22;9975;48.046;7.804;2023-03-14T10:19:09;11.20;99.90
19654;DHT22;9975;48.046;7.804;2023-03-14T10:21:38;11.40;99.90
19654;DHT22;9975;48.046;7.804;2023-03-14T10:26:43;11.30;99.90
19654;DHT22;9975;48.046;7.804;2023-03-14T10:29:13;11.40;99.90
19654;DHT22;9975;48.046;7.804;2023-03-14T10:31:51;11.30;99.90
19654;DHT22;9975;48.046;7.804;2023-03-14T10:34:25;11.30;99.90
19654;DHT22;9975;48.046;7.804;2023-03-14T10:36:58;11.10;99.90
19654;DHT22;9975;48.046;7.804;2023-03-14T10:39:32;11.10;99.90
19654;DHT22;9975;48.046;7.804;2023-03-14T10:44:46;10.70;99.90
19654;DHT22;9975;48.046;7.804;2023-03-14T10:47:20;10.90;99.90
19654;DHT22;9975;48.046;7.804;2023-03-14T10:49:47;10.90;99.90
19654;DHT22;9975;48.046;7.804;2023-03-14T10:52:21;11.00;99.90
19654;DHT22;9975;48.046;7.804;2023-03-14T10:55:03;10.90;99.90
19654;DHT22;9975;48.046;7.804;2023-03-14T10:57:29;10.80;99.90
19654;DHT22;9975;48.046;7.804;2023-03-14T10:59:56;10.80;99.90
19654;DHT22;9975;48.046;7.804;2023-03-14T11:02:40;10.80;99.90
19654;DHT22;9975;48.046;7.804;2023-03-14T11:08:11;10.70;99.90
19654;DHT22;9975;48.046;7.804;2023-03-14T11:10:41;10.70;99.90
19654;DHT22;9975;48.046;7.804;2023-03-14T11:13:25;10.70;99.90
19654;DHT22;9975;48.046;7.804;2023-03-14T11:16:09;10.70;99.90
19654;DHT22;9975;48.046;7.804;2023-03-14T11:27:22;10.60;99.90
19654;DHT22;9975;48.046;7.804;2023-03-14T11:32:54;10.10;99.90
19654;DHT22;9975;48.046;7.804;2023-03-14T11:35:33;9.50;99.90
19654;DHT22;9975;48.046;7.804;2023-03-14T11:40:28;9.40;99.90
19654;DHT22;9975;48.046;7.804;2023-03-14T11:45:50;9.30;99.90
19654;DHT22;9975;48.046;7.804;2023-03-14T11:51:28;9.40;99.90
19654;DHT22;9975;48.046;7.804;2023-03-14T11:54:14;9.40;99.90
19654;DHT22;9975;48.046;7.804;2023-03-14T11:56:54;9.50;97.70
19654;DHT22;9975;48.046;7.804;2023-03-14T12:02:22;9.70;96.80
19654;DHT22;9975;48.046;7.804;2023-03-14T12:05:20;9.80;95.30
19654;DHT22;9975;48.046;7.804;2023-03-14T12:08:03;9.70;93.30
19654;DHT22;9975;48.046;7.804;2023-03-14T12:13:28;9.80;93.20
19654;DHT22;9975;48.046;7.804;2023-03-14T12:15:56;9.90;93.60
19654;DHT22;9975;48.046;7.804;2023-03-14T12:21:01;10.40;93.60
19654;DHT22;9975;48.046;7.804;2023-03-14T12:23:40;10.40;92.20
19654;DHT22;9975;48.046;7.804;2023-03-14T12:26:18;10.60;91.30
19654;DHT22;9975;48.046;7.804;2023-03-14T12:28:52;10.60;90.10
19654;DHT22;9975;48.046;7.804;2023-03-14T12:31:42;10.60;89.80
19654;DHT22;9975;48.046;7.804;2023-03-14T12:44:42;10.90;83.00
19654;DHT22;9975;48.046;7.804;2023-03-14T12:49:50;10.90;80.40
19654;DHT22;9975;48.046;7.804;2023-03-14T12:55:24;11.00;81.60
19654;DHT22;9975;48.046;7.804;2023-03-14T12:58:15;10.60;78.60
19654;DHT22;9975;48.046;7.804;2023-03-14T13:00:51;10.70;77.50
19654;DHT22;9975;48.046;7.804;2023-03-14T13:03:22;10.50;78.40
19654;DHT22;9975;48.046;7.804;2023-03-14T13:05:58;10.20;81.10
19654;DHT22;9975;48.046;7.804;2023-03-14T13:08:35;10.20;81.90
19654;DHT22;9975;48.046;7.804;2023-03-14T13:11:02;9.80;87.50
19654;DHT22;9975;48.046;7.804;2023-03-14T13:13:29;9.80;88.80
19654;DHT22;9975;48.046;7.804;2023-03-14T13:15:57;9.90;87.40
19654;DHT22;9975;48.046;7.804;2023-03-14T13:18:43;9.90;86.90
19654;DHT22;9975;48.046;7.804;2023-03-14T13:21:17;10.00;84.30
19654;DHT22;9975;48.046;7.804;2023-03-14T13:26:32;10.00;80.00
19654;DHT22;9975;48.046;7.804;2023-03-14T13:28:59;9.90;78.70
19654;DHT22;9975;48.046;7.804;2023-03-14T13:31:25;9.90;77.80
19654;DHT22;9975;48.046;7.804;2023-03-14T13:34:04;9.90;75.50
19654;DHT22;9975;48.046;7.804;2023-03-14T13:36:31;9.80;75.30
19654;DHT22;9975;48.046;7.804;2023-03-14T13:39:00;9.80;76.70
19654;DHT22;9975;48.046;7.804;2023-03-14T13:41:27;9.60;75.70
19654;DHT22;9975;48.046;7.804;2023-03-14T13:44:03;9.70;74.40
19654;DHT22;9975;48.046;7.804;2023-03-14T13:46:33;9.70;75.30
19654;DHT22;9975;48.046;7.804;2023-03-14T13:49:03;9.60;75.50
19654;DHT22;9975;48.046;7.804;2023-03-14T13:51:30;9.60;75.20
19654;DHT22;9975;48.046;7.804;2023-03-14T13:53:59;9.60;76.50
19654;DHT22;9975;48.046;7.804;2023-03-14T13:56:31;9.70;76.80
19654;DHT22;9975;48.046;7.804;2023-03-14T13:58:57;9.80;75.90
19654;DHT22;9975;48.046;7.804;2023-03-14T14:01:31;9.80;75.60
19654;DHT22;9975;48.046;7.804;2023-03-14T14:04:02;9.90;75.10
19654;DHT22;9975;48.046;7.804;2023-03-14T14:06:34;9.90;75.10
19654;DHT22;9975;48.046;7.804;2023-03-14T14:09:23;9.90;76.00
19654;DHT22;9975;48.046;7.804;2023-03-14T14:12:02;9.80;75.10
19654;DHT22;9975;48.046;7.804;2023-03-14T14:16:59;9.80;74.10
19654;DHT22;9975;48.046;7.804;2023-03-14T14:19:27;9.80;73.10
19654;DHT22;9975;48.046;7.804;2023-03-14T14:21:54;9.80;72.20
19654;DHT22;9975;48.046;7.804;2023-03-14T14:24:21;9.80;70.90
19654;DHT22;9975;48.046;7.804;2023-03-14T14:26:51;9.70;69.30
19654;DHT22;9975;48.046;7.804;2023-03-14T14:29:32;9.70;69.70
19654;DHT22;9975;48.046;7.804;2023-03-14T14:34:44;9.70;69.10
19654;DHT22;9975;48.046;7.804;2023-03-14T14:37:19;9.80;69.50
19654;DHT22;9975;48.046;7.804;2023-03-14T14:39:45;10.00;69.80
19654;DHT22;9975;48.046;7.804;2023-03-14T14:42:15;10.10;69.30
19654;DHT22;9975;48.046;7.804;2023-03-14T14:44:47;10.30;69.00
19654;DHT22;9975;48.046;7.804;2023-03-14T14:47:19;10.40;69.80
19654;DHT22;9975;48.046;7.804;2023-03-14T14:49:47;10.40;68.90
19654;DHT22;9975;48.046;7.804;2023-03-14T14:52:27;10.40;68.90
19654;DHT22;9975;48.046;7.804;2023-03-14T14:55:02;10.50;69.30
19654;DHT22;9975;48.046;7.804;2023-03-14T14:57:31;10.60;70.10
19654;DHT22;9975;48.046;7.804;2023-03-14T15:00:17;10.70;71.50
19654;DHT22;9975;48.046;7.804;2023-03-14T15:02:48;10.90;72.50
19654;DHT22;9975;48.046;7.804;2023-03-14T15:05:16;10.80;73.00
19654;DHT22;9975;48.046;7.804;2023-03-14T15:07:42;11.30;72.40
19654;DHT22;9975;48.046;7.804;2023-03-14T15:10:15;11.60;71.70
19654;DHT22;9975;48.046;7.804;2023-03-14T15:12:41;11.90;68.10
19654;DHT22;9975;48.046;7.804;2023-03-14T15:15:08;11.90;68.50
19654;DHT22;9975;48.046;7.804;2023-03-14T15:17:34;11.80;66.40
19654;DHT22;9975;48.046;7.804;2023-03-14T15:20:13;11.90;64.70
19654;DHT22;9975;48.046;7.804;2023-03-14T15:22:39;12.00;62.50
19654;DHT22;9975;48.046;7.804;2023-03-14T15:25:08;11.90;63.20
19654;DHT22;9975;48.046;7.804;2023-03-14T15:27:35;11.80;63.10
19654;DHT22;9975;48.046;7.804;2023-03-14T15:30:01;11.70;63.10
19654;DHT22;9975;48.046;7.804;2023-03-14T15:32:27;11.70;63.00
19654;DHT22;9975;48.046;7.804;2023-03-14T15:34:54;11.90;64.20
19654;DHT22;9975;48.046;7.804;2023-03-14T15:37:20;12.10;63.70
19654;DHT22;9975;48.046;7.804;2023-03-14T15:39:47;12.30;62.60
19654;DHT22;9975;48.046;7.804;2023-03-14T15:42:12;12.30;62.70
19654;DHT22;9975;48.046;7.804;2023-03-14T15:44:38;12.40;63.50
19654;DHT22;9975;48.046;7.804;2023-03-14T15:47:09;12.60;63.00
19654;DHT22;9975;48.046;7.804;2023-03-14T15:49:35;12.70;63.00
19654;DHT22;9975;48.046;7.804;2023-03-14T15:52:02;12.40;61.20
19654;DHT22;9975;48.046;7.804;2023-03-14T15:54:28;12.10;61.30
19654;DHT22;9975;48.046;7.804;2023-03-14T15:56:56;11.80;61.90
19654;DHT22;9975;48.046;7.804;2023-03-14T15:59:23;11.60;62.90
19654;DHT22;9975;48.046;7.804;2023-03-14T16:01:49;11.20;60.50
19654;DHT22;9975;48.046;7.804;2023-03-14T16:04:15;11.20;61.20
19654;DHT22;9975;48.046;7.804;2023-03-14T16:06:42;11.10;62.40
19654;DHT22;9975;48.046;7.804;2023-03-14T16:09:12;10.80;62.10
19654;DHT22;9975;48.046;7.804;2023-03-14T16:11:38;10.70;62.50
19654;DHT22;9975;48.046;7.804;2023-03-14T16:14:04;10.80;63.50
19654;DHT22;9975;48.046;7.804;2023-03-14T16:16:31;10.60;63.80
19654;DHT22;9975;48.046;7.804;2023-03-14T16:19:01;10.50;64.30
19654;DHT22;9975;48.046;7.804;2023-03-14T16:21:27;10.40;64.10
19654;DHT22;9975;48.046;7.804;2023-03-14T16:23:53;10.50;65.00
19654;DHT22;9975;48.046;7.804;2023-03-14T16:26:19;10.30;66.40
19654;DHT22;9975;48.046;7.804;2023-03-14T16:28:46;10.20;69.70
19654;DHT22;9975;48.046;7.804;2023-03-14T16:31:16;10.10;71.00
19654;DHT22;9975;48.046;7.804;2023-03-14T16:33:42;10.10;72.40
19654;DHT22;9975;48.046;7.804;2023-03-14T16:36:10;10.00;73.10
19654;DHT22;9975;48.046;7.804;2023-03-14T16:38:38;10.00;74.60
19654;DHT22;9975;48.046;7.804;2023-03-14T16:43:37;9.80;76.70
19654;DHT22;9975;48.046;7.804;2023-03-14T16:46:04;9.70;78.50
19654;DHT22;9975;48.046;7.804;2023-03-14T16:48:30;9.60;82.00
19654;DHT22;9975;48.046;7.804;2023-03-14T16:50:56;9.30;84.10
19654;DHT22;9975;48.046;7.804;2023-03-14T16:53:22;9.50;85.90
19654;DHT22;9975;48.046;7.804;2023-03-14T16:55:49;9.40;85.50
19654;DHT22;9975;48.046;7.804;2023-03-14T16:58:16;9.40;86.60
19654;DHT22;9975;48.046;7.804;2023-03-14T17:00:44;9.40;85.50
19654;DHT22;9975;48.046;7.804;2023-03-14T17:05:36;9.30;86.10
19654;DHT22;9975;48.046;7.804;2023-03-14T17:08:03;9.30;87.10
19654;DHT22;9975;48.046;7.804;2023-03-14T17:10:29;9.20;87.60
19654;DHT22;9975;48.046;7.804;2023-03-14T17:12:55;9.20;87.40
19654;DHT22;9975;48.046;7.804;2023-03-14T17:15:20;9.20;87.20
19654;DHT22;9975;48.046;7.804;2023-03-14T17:17:46;9.00;85.80
19654;DHT22;9975;48.046;7.804;2023-03-14T17:20:12;8.90;85.90
19654;DHT22;9975;48.046;7.804;2023-03-14T17:22:37;8.90;86.30
19654;DHT22;9975;48.046;7.804;2023-03-14T17:25:03;9.00;87.30
19654;DHT22;9975;48.046;7.804;2023-03-14T17:27:29;8.90;86.60
19654;DHT22;9975;48.046;7.804;2023-03-14T17:29:55;8.70;86.50
19654;DHT22;9975;48.046;7.804;2023-03-14T17:32:20;8.60;85.20
19654;DHT22;9975;48.046;7.804;2023-03-14T17:34:46;8.60;82.20
19654;DHT22;9975;48.046;7.804;2023-03-14T17:37:12;8.60;82.90
19654;DHT22;9975;48.046;7.804;2023-03-14T17:39:38;8.70;83.60
19654;DHT22;9975;48.046;7.804;2023-03-14T17:42:04;8.60;82.80
19654;DHT22;9975;48.046;7.804;2023-03-14T17:46:57;8.60;80.40
19654;DHT22;9975;48.046;7.804;2023-03-14T17:49:23;8.50;80.90
19654;DHT22;9975;48.046;7.804;2023-03-14T17:51:49;8.50;80.80
19654;DHT22;9975;48.046;7.804;2023-03-14T17:54:15;8.50;80.50
19654;DHT22;9975;48.046;7.804;2023-03-14T17:59:11;8.40;79.10
19654;DHT22;9975;48.046;7.804;2023-03-14T18:01:37;8.40;79.10
19654;DHT22;9975;48.046;7.804;2023-03-14T18:04:05;8.50;78.70
19654;DHT22;9975;48.046;7.804;2023-03-14T18:06:30;8.40;79.10
19654;DHT22;9975;48.046;7.804;2023-03-14T18:08:57;8.40;79.20
19654;DHT22;9975;48.046;7.804;2023-03-14T18:11:24;8.40;79.00
19654;DHT22;9975;48.046;7.804;2023-03-14T18:13:49;8.50;79.20
19654;DHT22;9975;48.046;7.804;2023-03-14T18:16:15;8.30;78.60
19654;DHT22;9975;48.046;7.804;2023-03-14T18:18:42;8.30;79.30
19654;DHT22;9975;48.046;7.804;2023-03-14T18:21:08;8.30;79.80
19654;DHT22;9975;48.046;7.804;2023-03-14T18:23:36;8.20;80.10
19654;DHT22;9975;48.046;7.804;2023-03-14T18:26:02;8.00;80.30
19654;DHT22;9975;48.046;7.804;2023-03-14T18:28:28;8.10;80.70
19654;DHT22;9975;48.046;7.804;2023-03-14T18:31:20;8.20;81.00
19654;DHT22;9975;48.046;7.804;2023-03-14T18:33:50;8.00;80.30
19654;DHT22;9975;48.046;7.804;2023-03-14T18:36:17;7.90;80.90
19654;DHT22;9975;48.046;7.804;2023-03-14T18:38:43;7.80;80.80
19654;DHT22;9975;48.046;7.804;2023-03-14T18:41:14;7.80;81.50
19654;DHT22;9975;48.046;7.804;2023-03-14T18:43:41;7.70;81.60
19654;DHT22;9975;48.046;7.804;2023-03-14T18:46:08;7.80;82.20
19654;DHT22;9975;48.046;7.804;2023-03-14T18:48:33;7.70;82.80
19654;DHT22;9975;48.046;7.804;2023-03-14T18:51:00;7.60;83.90
19654;DHT22;9975;48.046;7.804;2023-03-14T18:53:25;7.50;84.50
19654;DHT22;9975;48.046;7.804;2023-03-14T18:56:01;7.50;85.40
19654;DHT22;9975;48.046;7.804;2023-03-14T18:58:27;7.40;86.20
19654;DHT22;9975;48.046;7.804;2023-03-14T19:00:58;7.50;86.80
19654;DHT22;9975;48.046;7.804;2023-03-14T19:03:24;7.40;87.50
19654;DHT22;9975;48.046;7.804;2023-03-14T19:05:51;7.60;87.30
19654;DHT22;9975;48.046;7.804;2023-03-14T19:08:17;7.40;87.30
19654;DHT22;9975;48.046;7.804;2023-03-14T19:10:43;7.30;87.80
19654;DHT22;9975;48.046;7.804;2023-03-14T19:13:09;7.40;88.60
19654;DHT22;9975;48.046;7.804;2023-03-14T19:15:35;7.40;88.10